sensor_id;sensor_type;location;lat;lon;timestamp;P1;durP1;ratioP1;P2;durP2;ratioP2
67995;SDS011;54772;53.544;49.324;2023-09-19T00:00:46;11.02;;;6.25;;
67995;SDS011;54772;53.544;49.324;2023-09-19T00:03:34;10.23;;;6.20;;
67995;SDS011;54772;53.544;49.324;2023-09-19T00:06:17;12.55;;;7.28;;
67995;SDS011;54772;53.544;49.324;2023-09-19T00:09:04;11.80;;;6.80;;
67995;SDS011;54772;53.544;49.324;2023-09-19T00:11:55;11.07;;;7.07;;
67995;SDS011;54772;53.544;49.324;2023-09-19T00:17:28;10.80;;;7.05;;
67995;SDS011;54772;53.544;49.324;2023-09-19T00:20:17;12.43;;;6.25;;
67995;SDS011;54772;53.544;49.324;2023-09-19T00:23:04;14.68;;;7.55;;
67995;SDS011;54772;53.544;49.324;2023-09-19T00:25:53;10.63;;;6.03;;
67995;SDS011;54772;53.544;49.324;2023-09-19T00:28:43;9.25;;;5.50;;
67995;SDS011;54772;53.544;49.324;2023-09-19T00:31:33;8.82;;;5.47;;
67995;SDS011;54772;53.544;49.324;2023-09-19T00:34:22;8.93;;;5.72;;
67995;SDS011;54772;53.544;49.324;2023-09-19T00:42:44;10.75;;;5.75;;
67995;SDS011;54772;53.544;49.324;2023-09-19T00:45:31;9.48;;;5.22;;
67995;SDS011;54772;53.544;49.324;2023-09-19T00:48:20;10.45;;;6.07;;
67995;SDS011;54772;53.544;49.324;2023-09-19T00:51:07;7.97;;;5.28;;
67995;SDS011;54772;53.544;49.324;2023-09-19T00:53:54;8.80;;;6.00;;
67995;SDS011;54772;53.544;49.324;2023-09-19T00:59:27;10.02;;;5.78;;
67995;SDS011;54772;53.544;49.324;2023-09-19T01:02:15;9.43;;;6.00;;
67995;SDS011;54772;53.544;49.324;2023-09-19T01:05:02;8.40;;;5.65;;
67995;SDS011;54772;53.544;49.324;2023-09-19T01:07:50;9.60;;;5.32;;
67995;SDS011;54772;53.544;49.324;2023-09-19T01:10:41;9.75;;;5.57;;
67995;SDS011;54772;53.544;49.324;2023-09-19T01:13:46;8.25;;;5.50;;
67995;SDS011;54772;53.544;49.324;2023-09-19T01:20:03;10.93;;;5.65;;
67995;SDS011;54772;53.544;49.324;2023-09-19T01:23:17;12.02;;;5.93;;
67995;SDS011;54772;53.544;49.324;2023-09-19T01:26:42;12.65;;;6.85;;
67995;SDS011;54772;53.544;49.324;2023-09-19T01:29:51;11.93;;;6.57;;
67995;SDS011;54772;53.544;49.324;2023-09-19T01:32:39;14.00;;;6.85;;
67995;SDS011;54772;53.544;49.324;2023-09-19T01:35:26;10.10;;;6.85;;
67995;SDS011;54772;53.544;49.324;2023-09-19T01:38:13;10.20;;;6.00;;
67995;SDS011;54772;53.544;49.324;2023-09-19T01:41:08;11.30;;;6.35;;
67995;SDS011;54772;53.544;49.324;2023-09-19T01:43:57;9.50;;;6.22;;
67995;SDS011;54772;53.544;49.324;2023-09-19T01:46:46;10.52;;;6.55;;
67995;SDS011;54772;53.544;49.324;2023-09-19T01:49:36;12.35;;;6.57;;
67995;SDS011;54772;53.544;49.324;2023-09-19T01:52:54;9.30;;;5.50;;
67995;SDS011;54772;53.544;49.324;2023-09-19T01:55:50;13.68;;;6.32;;
67995;SDS011;54772;53.544;49.324;2023-09-19T01:58:42;9.95;;;6.03;;
67995;SDS011;54772;53.544;49.324;2023-09-19T02:01:31;16.10;;;7.05;;
67995;SDS011;54772;53.544;49.324;2023-09-19T02:04:18;11.50;;;6.22;;
67995;SDS011;54772;53.544;49.324;2023-09-19T02:07:05;11.82;;;6.15;;
67995;SDS011;54772;53.544;49.324;2023-09-19T02:09:53;10.13;;;5.97;;
67995;SDS011;54772;53.544;49.324;2023-09-19T02:15:03;8.57;;;5.53;;
67995;SDS011;54772;53.544;49.324;2023-09-19T02:17:53;10.90;;;6.10;;
67995;SDS011;54772;53.544;49.324;2023-09-19T02:20:45;8.40;;;5.35;;
67995;SDS011;54772;53.544;49.324;2023-09-19T02:23:32;10.32;;;6.22;;
67995;SDS011;54772;53.544;49.324;2023-09-19T02:26:40;16.40;;;7.30;;
67995;SDS011;54772;53.544;49.324;2023-09-19T02:29:27;11.95;;;7.10;;
67995;SDS011;54772;53.544;49.324;2023-09-19T02:32:14;12.40;;;7.07;;
67995;SDS011;54772;53.544;49.324;2023-09-19T02:35:03;9.57;;;6.05;;
67995;SDS011;54772;53.544;49.324;2023-09-19T02:37:51;10.30;;;6.47;;
67995;SDS011;54772;53.544;49.324;2023-09-19T02:40:55;10.85;;;6.47;;
67995;SDS011;54772;53.544;49.324;2023-09-19T02:43:42;10.68;;;6.57;;
67995;SDS011;54772;53.544;49.324;2023-09-19T02:46:28;10.35;;;6.47;;
67995;SDS011;54772;53.544;49.324;2023-09-19T02:49:15;10.02;;;5.35;;
67995;SDS011;54772;53.544;49.324;2023-09-19T02:52:03;17.77;;;6.37;;
67995;SDS011;54772;53.544;49.324;2023-09-19T02:54:50;13.30;;;7.12;;
67995;SDS011;54772;53.544;49.324;2023-09-19T02:57:36;10.32;;;5.55;;
67995;SDS011;54772;53.544;49.324;2023-09-19T03:00:26;11.43;;;5.95;;
67995;SDS011;54772;53.544;49.324;2023-09-19T03:06:02;9.63;;;5.05;;
67995;SDS011;54772;53.544;49.324;2023-09-19T03:08:49;8.75;;;5.60;;
67995;SDS011;54772;53.544;49.324;2023-09-19T03:11:35;8.40;;;5.10;;
67995;SDS011;54772;53.544;49.324;2023-09-19T03:14:23;8.15;;;5.50;;
67995;SDS011;54772;53.544;49.324;2023-09-19T03:19:56;8.73;;;5.43;;
67995;SDS011;54772;53.544;49.324;2023-09-19T03:22:44;9.15;;;4.45;;
67995;SDS011;54772;53.544;49.324;2023-09-19T03:25:33;7.68;;;4.72;;
67995;SDS011;54772;53.544;49.324;2023-09-19T03:28:21;8.75;;;5.65;;
67995;SDS011;54772;53.544;49.324;2023-09-19T03:31:09;7.20;;;4.95;;
67995;SDS011;54772;53.544;49.324;2023-09-19T03:33:55;10.57;;;5.10;;
67995;SDS011;54772;53.544;49.324;2023-09-19T03:36:43;6.85;;;4.25;;
67995;SDS011;54772;53.544;49.324;2023-09-19T03:42:16;9.80;;;4.85;;
67995;SDS011;54772;53.544;49.324;2023-09-19T03:45:10;7.00;;;4.07;;
67995;SDS011;54772;53.544;49.324;2023-09-19T03:47:58;9.95;;;5.10;;
67995;SDS011;54772;53.544;49.324;2023-09-19T03:53:31;8.65;;;3.92;;
67995;SDS011;54772;53.544;49.324;2023-09-19T03:56:18;7.50;;;4.37;;
67995;SDS011;54772;53.544;49.324;2023-09-19T03:59:01;8.02;;;4.72;;
67995;SDS011;54772;53.544;49.324;2023-09-19T04:01:48;6.78;;;4.78;;
67995;SDS011;54772;53.544;49.324;2023-09-19T04:04:35;8.57;;;5.50;;
67995;SDS011;54772;53.544;49.324;2023-09-19T04:10:11;10.77;;;5.43;;
67995;SDS011;54772;53.544;49.324;2023-09-19T04:12:59;6.62;;;4.15;;
67995;SDS011;54772;53.544;49.324;2023-09-19T04:15:46;5.03;;;3.30;;
67995;SDS011;54772;53.544;49.324;2023-09-19T04:18:33;8.85;;;4.65;;
67995;SDS011;54772;53.544;49.324;2023-09-19T04:21:22;9.23;;;4.65;;
67995;SDS011;54772;53.544;49.324;2023-09-19T04:24:09;10.05;;;5.80;;
67995;SDS011;54772;53.544;49.324;2023-09-19T04:27:13;11.12;;;6.00;;
67995;SDS011;54772;53.544;49.324;2023-09-19T04:30:00;8.75;;;4.45;;
67995;SDS011;54772;53.544;49.324;2023-09-19T04:32:49;8.55;;;5.25;;
67995;SDS011;54772;53.544;49.324;2023-09-19T04:38:26;8.45;;;4.70;;
67995;SDS011;54772;53.544;49.324;2023-09-19T04:41:14;9.15;;;4.07;;
67995;SDS011;54772;53.544;49.324;2023-09-19T04:44:01;8.45;;;4.43;;
67995;SDS011;54772;53.544;49.324;2023-09-19T04:46:49;10.68;;;4.60;;
67995;SDS011;54772;53.544;49.324;2023-09-19T04:49:35;7.55;;;4.12;;
67995;SDS011;54772;53.544;49.324;2023-09-19T04:52:22;8.95;;;5.85;;
67995;SDS011;54772;53.544;49.324;2023-09-19T04:55:09;8.07;;;5.25;;
67995;SDS011;54772;53.544;49.324;2023-09-19T04:58:02;8.95;;;5.25;;
67995;SDS011;54772;53.544;49.324;2023-09-19T05:00:48;8.93;;;5.40;;
67995;SDS011;54772;53.544;49.324;2023-09-19T05:03:37;9.98;;;4.60;;
67995;SDS011;54772;53.544;49.324;2023-09-19T05:06:23;7.45;;;4.60;;
67995;SDS011;54772;53.544;49.324;2023-09-19T05:09:11;8.20;;;4.93;;
67995;SDS011;54772;53.544;49.324;2023-09-19T05:11:58;7.30;;;4.70;;
67995;SDS011;54772;53.544;49.324;2023-09-19T05:14:45;7.72;;;4.80;;
67995;SDS011;54772;53.544;49.324;2023-09-19T05:20:15;9.55;;;4.75;;
67995;SDS011;54772;53.544;49.324;2023-09-19T05:23:03;10.25;;;5.57;;
67995;SDS011;54772;53.544;49.324;2023-09-19T05:25:58;6.82;;;4.43;;
67995;SDS011;54772;53.544;49.324;2023-09-19T05:28:45;9.15;;;5.53;;
67995;SDS011;54772;53.544;49.324;2023-09-19T05:31:35;7.85;;;4.93;;
67995;SDS011;54772;53.544;49.324;2023-09-19T05:34:26;6.50;;;3.62;;
67995;SDS011;54772;53.544;49.324;2023-09-19T05:37:15;5.70;;;3.45;;
67995;SDS011;54772;53.544;49.324;2023-09-19T05:40:02;5.40;;;3.17;;
67995;SDS011;54772;53.544;49.324;2023-09-19T05:42:52;6.70;;;4.68;;
67995;SDS011;54772;53.544;49.324;2023-09-19T05:45:39;8.30;;;4.47;;
67995;SDS011;54772;53.544;49.324;2023-09-19T05:48:26;7.45;;;4.15;;
67995;SDS011;54772;53.544;49.324;2023-09-19T05:51:13;8.52;;;4.60;;
67995;SDS011;54772;53.544;49.324;2023-09-19T05:56:46;7.35;;;4.30;;
67995;SDS011;54772;53.544;49.324;2023-09-19T05:59:32;7.40;;;4.10;;
67995;SDS011;54772;53.544;49.324;2023-09-19T06:02:19;5.30;;;3.80;;
67995;SDS011;54772;53.544;49.324;2023-09-19T06:05:06;7.40;;;3.53;;
67995;SDS011;54772;53.544;49.324;2023-09-19T06:07:55;6.18;;;4.12;;
67995;SDS011;54772;53.544;49.324;2023-09-19T06:10:46;7.68;;;3.70;;
67995;SDS011;54772;53.544;49.324;2023-09-19T06:13:36;5.57;;;4.10;;
67995;SDS011;54772;53.544;49.324;2023-09-19T06:16:28;5.53;;;3.67;;
67995;SDS011;54772;53.544;49.324;2023-09-19T06:19:17;6.15;;;4.32;;
67995;SDS011;54772;53.544;49.324;2023-09-19T06:22:03;6.90;;;4.60;;
67995;SDS011;54772;53.544;49.324;2023-09-19T06:24:50;8.32;;;4.25;;
67995;SDS011;54772;53.544;49.324;2023-09-19T06:30:29;7.80;;;3.87;;
67995;SDS011;54772;53.544;49.324;2023-09-19T06:33:20;6.22;;;3.87;;
67995;SDS011;54772;53.544;49.324;2023-09-19T06:36:06;6.60;;;4.05;;
67995;SDS011;54772;53.544;49.324;2023-09-19T06:38:53;7.30;;;3.70;;
67995;SDS011;54772;53.544;49.324;2023-09-19T06:44:28;8.30;;;3.72;;
67995;SDS011;54772;53.544;49.324;2023-09-19T06:47:16;8.00;;;3.97;;
67995;SDS011;54772;53.544;49.324;2023-09-19T06:52:51;4.60;;;3.20;;
67995;SDS011;54772;53.544;49.324;2023-09-19T06:55:39;5.57;;;3.10;;
67995;SDS011;54772;53.544;49.324;2023-09-19T07:01:12;6.22;;;3.60;;
67995;SDS011;54772;53.544;49.324;2023-09-19T07:04:02;7.93;;;4.00;;
67995;SDS011;54772;53.544;49.324;2023-09-19T07:06:50;5.12;;;2.97;;
67995;SDS011;54772;53.544;49.324;2023-09-19T07:09:37;5.00;;;3.50;;
67995;SDS011;54772;53.544;49.324;2023-09-19T07:15:10;6.03;;;3.53;;
67995;SDS011;54772;53.544;49.324;2023-09-19T07:17:57;4.62;;;2.97;;
67995;SDS011;54772;53.544;49.324;2023-09-19T07:20:44;4.80;;;2.62;;
67995;SDS011;54772;53.544;49.324;2023-09-19T07:23:34;3.90;;;2.70;;
67995;SDS011;54772;53.544;49.324;2023-09-19T07:29:07;4.45;;;3.00;;
67995;SDS011;54772;53.544;49.324;2023-09-19T07:31:54;3.25;;;2.83;;
67995;SDS011;54772;53.544;49.324;2023-09-19T07:34:41;3.72;;;2.35;;
67995;SDS011;54772;53.544;49.324;2023-09-19T07:37:30;6.05;;;2.65;;
67995;SDS011;54772;53.544;49.324;2023-09-19T07:40:18;4.03;;;2.60;;
67995;SDS011;54772;53.544;49.324;2023-09-19T07:43:09;4.28;;;2.62;;
67995;SDS011;54772;53.544;49.324;2023-09-19T07:45:56;5.53;;;2.95;;
67995;SDS011;54772;53.544;49.324;2023-09-19T07:48:45;5.20;;;3.05;;
67995;SDS011;54772;53.544;49.324;2023-09-19T07:51:34;6.07;;;3.00;;
67995;SDS011;54772;53.544;49.324;2023-09-19T07:57:08;4.45;;;3.00;;
67995;SDS011;54772;53.544;49.324;2023-09-19T07:59:54;6.57;;;2.85;;
67995;SDS011;54772;53.544;49.324;2023-09-19T08:02:42;4.15;;;2.70;;
67995;SDS011;54772;53.544;49.324;2023-09-19T08:05:29;5.07;;;2.78;;
67995;SDS011;54772;53.544;49.324;2023-09-19T08:08:16;9.60;;;3.33;;
67995;SDS011;54772;53.544;49.324;2023-09-19T08:11:06;3.42;;;2.42;;
67995;SDS011;54772;53.544;49.324;2023-09-19T08:13:56;4.90;;;2.85;;
67995;SDS011;54772;53.544;49.324;2023-09-19T08:16:44;4.15;;;2.75;;
67995;SDS011;54772;53.544;49.324;2023-09-19T08:19:30;3.83;;;2.50;;
67995;SDS011;54772;53.544;49.324;2023-09-19T08:22:18;4.72;;;3.03;;
67995;SDS011;54772;53.544;49.324;2023-09-19T08:25:06;3.70;;;2.70;;
67995;SDS011;54772;53.544;49.324;2023-09-19T08:30:43;3.47;;;2.60;;
67995;SDS011;54772;53.544;49.324;2023-09-19T08:33:50;5.90;;;2.87;;
67995;SDS011;54772;53.544;49.324;2023-09-19T08:36:38;4.57;;;2.87;;
67995;SDS011;54772;53.544;49.324;2023-09-19T08:39:27;3.87;;;2.42;;
67995;SDS011;54772;53.544;49.324;2023-09-19T08:42:16;6.45;;;2.80;;
67995;SDS011;54772;53.544;49.324;2023-09-19T08:45:05;2.72;;;2.17;;
67995;SDS011;54772;53.544;49.324;2023-09-19T08:51:02;4.80;;;2.62;;
67995;SDS011;54772;53.544;49.324;2023-09-19T08:56:59;3.62;;;2.67;;
67995;SDS011;54772;53.544;49.324;2023-09-19T08:59:48;5.12;;;2.33;;
67995;SDS011;54772;53.544;49.324;2023-09-19T09:02:36;4.97;;;2.70;;
67995;SDS011;54772;53.544;49.324;2023-09-19T09:05:26;3.78;;;2.40;;
67995;SDS011;54772;53.544;49.324;2023-09-19T09:08:15;4.30;;;2.90;;
67995;SDS011;54772;53.544;49.324;2023-09-19T09:11:02;3.37;;;2.10;;
67995;SDS011;54772;53.544;49.324;2023-09-19T09:13:52;2.87;;;2.00;;
67995;SDS011;54772;53.544;49.324;2023-09-19T09:19:25;3.60;;;2.60;;
67995;SDS011;54772;53.544;49.324;2023-09-19T09:22:12;3.65;;;2.58;;
67995;SDS011;54772;53.544;49.324;2023-09-19T09:24:59;4.60;;;2.53;;
67995;SDS011;54772;53.544;49.324;2023-09-19T09:28:00;3.00;;;2.40;;
67995;SDS011;54772;53.544;49.324;2023-09-19T09:30:47;3.17;;;2.15;;
67995;SDS011;54772;53.544;49.324;2023-09-19T09:33:34;4.53;;;3.08;;
67995;SDS011;54772;53.544;49.324;2023-09-19T09:36:42;3.67;;;2.90;;
67995;SDS011;54772;53.544;49.324;2023-09-19T09:39:32;3.45;;;2.28;;
67995;SDS011;54772;53.544;49.324;2023-09-19T09:42:32;3.60;;;2.50;;
67995;SDS011;54772;53.544;49.324;2023-09-19T09:45:26;3.60;;;2.30;;
67995;SDS011;54772;53.544;49.324;2023-09-19T09:48:24;3.40;;;2.12;;
67995;SDS011;54772;53.544;49.324;2023-09-19T09:51:28;3.58;;;2.37;;
67995;SDS011;54772;53.544;49.324;2023-09-19T09:54:16;5.28;;;2.30;;
67995;SDS011;54772;53.544;49.324;2023-09-19T09:57:06;4.28;;;2.10;;
67995;SDS011;54772;53.544;49.324;2023-09-19T10:00:05;4.43;;;2.12;;
67995;SDS011;54772;53.544;49.324;2023-09-19T10:02:59;3.60;;;2.20;;
67995;SDS011;54772;53.544;49.324;2023-09-19T10:05:45;2.92;;;2.40;;
67995;SDS011;54772;53.544;49.324;2023-09-19T10:08:33;3.85;;;2.20;;
67995;SDS011;54772;53.544;49.324;2023-09-19T10:11:21;2.25;;;1.75;;
67995;SDS011;54772;53.544;49.324;2023-09-19T10:14:16;2.62;;;1.77;;
67995;SDS011;54772;53.544;49.324;2023-09-19T10:17:05;2.35;;;1.87;;
67995;SDS011;54772;53.544;49.324;2023-09-19T10:19:54;3.97;;;2.05;;
67995;SDS011;54772;53.544;49.324;2023-09-19T10:23:09;2.72;;;1.90;;
67995;SDS011;54772;53.544;49.324;2023-09-19T10:25:58;3.17;;;2.10;;
67995;SDS011;54772;53.544;49.324;2023-09-19T10:28:48;2.42;;;1.87;;
67995;SDS011;54772;53.544;49.324;2023-09-19T10:31:37;3.95;;;2.00;;
67995;SDS011;54772;53.544;49.324;2023-09-19T10:34:26;2.87;;;1.92;;
67995;SDS011;54772;53.544;49.324;2023-09-19T10:37:13;4.82;;;1.90;;
67995;SDS011;54772;53.544;49.324;2023-09-19T10:40:01;3.80;;;2.10;;
67995;SDS011;54772;53.544;49.324;2023-09-19T10:42:53;3.62;;;2.05;;
67995;SDS011;54772;53.544;49.324;2023-09-19T10:48:26;2.62;;;1.70;;
67995;SDS011;54772;53.544;49.324;2023-09-19T10:56:58;1.87;;;1.67;;
67995;SDS011;54772;53.544;49.324;2023-09-19T11:00:08;3.30;;;1.95;;
67995;SDS011;54772;53.544;49.324;2023-09-19T11:06:08;4.53;;;1.90;;
67995;SDS011;54772;53.544;49.324;2023-09-19T11:09:06;2.47;;;1.90;;
67995;SDS011;54772;53.544;49.324;2023-09-19T11:12:10;3.28;;;2.28;;
67995;SDS011;54772;53.544;49.324;2023-09-19T11:17:43;2.15;;;1.70;;
67995;SDS011;54772;53.544;49.324;2023-09-19T11:20:31;2.53;;;1.75;;
67995;SDS011;54772;53.544;49.324;2023-09-19T11:23:26;2.35;;;1.77;;
67995;SDS011;54772;53.544;49.324;2023-09-19T11:27:08;2.62;;;1.30;;
67995;SDS011;54772;53.544;49.324;2023-09-19T11:29:29;3.50;;;2.00;;
67995;SDS011;54772;53.544;49.324;2023-09-19T11:32:16;4.55;;;2.40;;
67995;SDS011;54772;53.544;49.324;2023-09-19T11:35:08;3.95;;;2.05;;
67995;SDS011;54772;53.544;49.324;2023-09-19T11:40:44;2.47;;;1.80;;
67995;SDS011;54772;53.544;49.324;2023-09-19T11:43:39;3.72;;;1.90;;
67995;SDS011;54772;53.544;49.324;2023-09-19T11:46:30;2.53;;;1.77;;
67995;SDS011;54772;53.544;49.324;2023-09-19T11:49:18;3.15;;;1.80;;
67995;SDS011;54772;53.544;49.324;2023-09-19T11:52:21;6.53;;;1.90;;
67995;SDS011;54772;53.544;49.324;2023-09-19T11:55:25;3.33;;;1.80;;
67995;SDS011;54772;53.544;49.324;2023-09-19T11:58:16;1.77;;;1.60;;
67995;SDS011;54772;53.544;49.324;2023-09-19T12:01:03;4.07;;;2.00;;
67995;SDS011;54772;53.544;49.324;2023-09-19T12:03:59;4.03;;;2.15;;
67995;SDS011;54772;53.544;49.324;2023-09-19T12:06:49;1.65;;;1.55;;
67995;SDS011;54772;53.544;49.324;2023-09-19T12:09:44;3.90;;;2.10;;
67995;SDS011;54772;53.544;49.324;2023-09-19T12:12:35;3.72;;;2.10;;
67995;SDS011;54772;53.544;49.324;2023-09-19T12:15:24;2.80;;;1.50;;
67995;SDS011;54772;53.544;49.324;2023-09-19T12:18:26;2.95;;;1.80;;
67995;SDS011;54772;53.544;49.324;2023-09-19T12:21:24;3.22;;;1.80;;
67995;SDS011;54772;53.544;49.324;2023-09-19T12:24:16;5.75;;;1.98;;
67995;SDS011;54772;53.544;49.324;2023-09-19T12:27:05;4.50;;;1.98;;
67995;SDS011;54772;53.544;49.324;2023-09-19T12:29:52;1.95;;;1.50;;
67995;SDS011;54772;53.544;49.324;2023-09-19T12:32:40;4.25;;;1.58;;
67995;SDS011;54772;53.544;49.324;2023-09-19T12:35:28;4.20;;;2.15;;
67995;SDS011;54772;53.544;49.324;2023-09-19T12:38:26;2.30;;;1.55;;
67995;SDS011;54772;53.544;49.324;2023-09-19T12:41:13;2.08;;;1.60;;
67995;SDS011;54772;53.544;49.324;2023-09-19T12:46:47;2.20;;;1.75;;
67995;SDS011;54772;53.544;49.324;2023-09-19T12:49:34;3.03;;;1.80;;
67995;SDS011;54772;53.544;49.324;2023-09-19T12:55:21;3.90;;;1.85;;
67995;SDS011;54772;53.544;49.324;2023-09-19T12:58:08;2.60;;;1.90;;
67995;SDS011;54772;53.544;49.324;2023-09-19T13:01:01;2.25;;;1.80;;
67995;SDS011;54772;53.544;49.324;2023-09-19T13:07:39;1.90;;;1.65;;
67995;SDS011;54772;53.544;49.324;2023-09-19T13:10:34;3.80;;;2.00;;
67995;SDS011;54772;53.544;49.324;2023-09-19T13:13:44;3.37;;;1.95;;
67995;SDS011;54772;53.544;49.324;2023-09-19T13:16:34;4.47;;;2.12;;
67995;SDS011;54772;53.544;49.324;2023-09-19T13:25:28;1.70;;;1.42;;
67995;SDS011;54772;53.544;49.324;2023-09-19T13:28:16;1.58;;;1.12;;
67995;SDS011;54772;53.544;49.324;2023-09-19T13:31:03;2.00;;;1.58;;
67995;SDS011;54772;53.544;49.324;2023-09-19T13:33:50;2.15;;;1.60;;
67995;SDS011;54772;53.544;49.324;2023-09-19T13:36:43;2.72;;;1.55;;
67995;SDS011;54772;53.544;49.324;2023-09-19T13:39:30;3.37;;;1.73;;
67995;SDS011;54772;53.544;49.324;2023-09-19T13:42:17;3.42;;;1.87;;
67995;SDS011;54772;53.544;49.324;2023-09-19T13:47:50;3.05;;;1.83;;
67995;SDS011;54772;53.544;49.324;2023-09-19T13:50:40;2.53;;;1.70;;
67995;SDS011;54772;53.544;49.324;2023-09-19T13:53:30;3.35;;;2.05;;
67995;SDS011;54772;53.544;49.324;2023-09-19T13:56:16;5.45;;;2.28;;
67995;SDS011;54772;53.544;49.324;2023-09-19T13:59:04;4.72;;;2.58;;
67995;SDS011;54772;53.544;49.324;2023-09-19T14:01:52;3.72;;;2.10;;
67995;SDS011;54772;53.544;49.324;2023-09-19T14:04:38;4.40;;;2.10;;
67995;SDS011;54772;53.544;49.324;2023-09-19T14:07:25;3.22;;;2.20;;
67995;SDS011;54772;53.544;49.324;2023-09-19T14:10:12;3.20;;;2.45;;
67995;SDS011;54772;53.544;49.324;2023-09-19T14:12:56;3.35;;;2.12;;
67995;SDS011;54772;53.544;49.324;2023-09-19T14:15:45;4.37;;;2.37;;
67995;SDS011;54772;53.544;49.324;2023-09-19T14:21:19;6.15;;;3.40;;
67995;SDS011;54772;53.544;49.324;2023-09-19T14:24:05;6.72;;;3.85;;
67995;SDS011;54772;53.544;49.324;2023-09-19T14:26:54;8.07;;;3.87;;
67995;SDS011;54772;53.544;49.324;2023-09-19T14:29:41;9.63;;;5.00;;
67995;SDS011;54772;53.544;49.324;2023-09-19T14:32:28;10.00;;;5.22;;
67995;SDS011;54772;53.544;49.324;2023-09-19T14:38:02;8.38;;;4.60;;
67995;SDS011;54772;53.544;49.324;2023-09-19T14:43:45;8.95;;;4.00;;
67995;SDS011;54772;53.544;49.324;2023-09-19T14:46:32;9.90;;;3.97;;
67995;SDS011;54772;53.544;49.324;2023-09-19T14:49:20;9.93;;;3.55;;
67995;SDS011;54772;53.544;49.324;2023-09-19T14:54:54;5.20;;;2.77;;
67995;SDS011;54772;53.544;49.324;2023-09-19T14:57:41;4.97;;;2.60;;
67995;SDS011;54772;53.544;49.324;2023-09-19T15:00:31;5.18;;;2.85;;
67995;SDS011;54772;53.544;49.324;2023-09-19T15:03:19;4.00;;;2.65;;
67995;SDS011;54772;53.544;49.324;2023-09-19T15:06:07;3.92;;;2.60;;
67995;SDS011;54772;53.544;49.324;2023-09-19T15:09:02;4.47;;;2.85;;
67995;SDS011;54772;53.544;49.324;2023-09-19T15:11:42;5.37;;;3.00;;
67995;SDS011;54772;53.544;49.324;2023-09-19T15:14:27;4.97;;;2.87;;
67995;SDS011;54772;53.544;49.324;2023-09-19T15:17:17;7.57;;;4.32;;
67995;SDS011;54772;53.544;49.324;2023-09-19T15:20:04;12.45;;;6.37;;
67995;SDS011;54772;53.544;49.324;2023-09-19T15:22:52;15.00;;;8.80;;
67995;SDS011;54772;53.544;49.324;2023-09-19T15:28:25;15.63;;;9.63;;
67995;SDS011;54772;53.544;49.324;2023-09-19T15:31:13;17.12;;;11.25;;
67995;SDS011;54772;53.544;49.324;2023-09-19T15:33:59;13.95;;;9.43;;
67995;SDS011;54772;53.544;49.324;2023-09-19T15:39:32;12.55;;;7.85;;
67995;SDS011;54772;53.544;49.324;2023-09-19T15:42:19;8.35;;;4.87;;
67995;SDS011;54772;53.544;49.324;2023-09-19T15:45:05;9.13;;;4.18;;
67995;SDS011;54772;53.544;49.324;2023-09-19T15:47:55;8.35;;;3.97;;
67995;SDS011;54772;53.544;49.324;2023-09-19T15:53:45;9.60;;;3.90;;
67995;SDS011;54772;53.544;49.324;2023-09-19T15:56:36;7.65;;;3.47;;
67995;SDS011;54772;53.544;49.324;2023-09-19T15:59:26;5.82;;;3.10;;
67995;SDS011;54772;53.544;49.324;2023-09-19T16:02:12;11.57;;;3.90;;
67995;SDS011;54772;53.544;49.324;2023-09-19T16:05:01;5.70;;;3.12;;
67995;SDS011;54772;53.544;49.324;2023-09-19T16:07:51;8.75;;;3.83;;
67995;SDS011;54772;53.544;49.324;2023-09-19T16:10:38;9.85;;;4.57;;
67995;SDS011;54772;53.544;49.324;2023-09-19T16:13:26;9.50;;;4.43;;
67995;SDS011;54772;53.544;49.324;2023-09-19T16:16:14;10.27;;;4.80;;
67995;SDS011;54772;53.544;49.324;2023-09-19T16:19:02;6.90;;;3.70;;
67995;SDS011;54772;53.544;49.324;2023-09-19T16:21:52;8.30;;;4.45;;
67995;SDS011;54772;53.544;49.324;2023-09-19T16:24:40;7.18;;;4.35;;
67995;SDS011;54772;53.544;49.324;2023-09-19T16:30:14;9.27;;;4.97;;
67995;SDS011;54772;53.544;49.324;2023-09-19T16:33:04;12.93;;;5.85;;
67995;SDS011;54772;53.544;49.324;2023-09-19T16:35:50;14.80;;;6.03;;
67995;SDS011;54772;53.544;49.324;2023-09-19T16:38:38;11.90;;;5.43;;
67995;SDS011;54772;53.544;49.324;2023-09-19T16:41:25;8.80;;;5.03;;
67995;SDS011;54772;53.544;49.324;2023-09-19T16:46:58;11.52;;;4.45;;
67995;SDS011;54772;53.544;49.324;2023-09-19T16:49:48;11.98;;;4.93;;
67995;SDS011;54772;53.544;49.324;2023-09-19T16:52:34;7.45;;;4.90;;
67995;SDS011;54772;53.544;49.324;2023-09-19T16:55:21;9.38;;;4.93;;
67995;SDS011;54772;53.544;49.324;2023-09-19T16:58:08;8.13;;;4.87;;
67995;SDS011;54772;53.544;49.324;2023-09-19T17:00:55;9.98;;;4.62;;
67995;SDS011;54772;53.544;49.324;2023-09-19T17:03:42;10.98;;;5.97;;
67995;SDS011;54772;53.544;49.324;2023-09-19T17:06:29;10.73;;;5.53;;
67995;SDS011;54772;53.544;49.324;2023-09-19T17:09:15;8.30;;;4.70;;
67995;SDS011;54772;53.544;49.324;2023-09-19T17:12:04;11.10;;;5.72;;
67995;SDS011;54772;53.544;49.324;2023-09-19T17:14:53;10.18;;;6.30;;
67995;SDS011;54772;53.544;49.324;2023-09-19T17:17:41;9.40;;;5.40;;
67995;SDS011;54772;53.544;49.324;2023-09-19T17:23:28;12.98;;;6.18;;
67995;SDS011;54772;53.544;49.324;2023-09-19T17:26:15;12.10;;;6.00;;
67995;SDS011;54772;53.544;49.324;2023-09-19T17:29:02;11.20;;;6.18;;
67995;SDS011;54772;53.544;49.324;2023-09-19T17:34:35;14.32;;;6.85;;
67995;SDS011;54772;53.544;49.324;2023-09-19T17:37:22;11.27;;;6.40;;
67995;SDS011;54772;53.544;49.324;2023-09-19T17:42:55;13.07;;;7.57;;
67995;SDS011;54772;53.544;49.324;2023-09-19T17:45:42;16.02;;;8.27;;
67995;SDS011;54772;53.544;49.324;2023-09-19T17:51:16;17.40;;;8.88;;
67995;SDS011;54772;53.544;49.324;2023-09-19T17:54:03;16.87;;;8.45;;
67995;SDS011;54772;53.544;49.324;2023-09-19T17:56:49;13.35;;;6.28;;
67995;SDS011;54772;53.544;49.324;2023-09-19T17:59:39;14.77;;;8.20;;
67995;SDS011;54772;53.544;49.324;2023-09-19T18:02:17;15.30;;;7.40;;
67995;SDS011;54772;53.544;49.324;2023-09-19T18:05:04;11.18;;;6.18;;
67995;SDS011;54772;53.544;49.324;2023-09-19T18:07:50;13.68;;;6.85;;
67995;SDS011;54772;53.544;49.324;2023-09-19T18:10:38;11.85;;;6.62;;
67995;SDS011;54772;53.544;49.324;2023-09-19T18:13:25;11.18;;;6.25;;
67995;SDS011;54772;53.544;49.324;2023-09-19T18:16:12;10.75;;;6.00;;
67995;SDS011;54772;53.544;49.324;2023-09-19T18:19:02;12.70;;;5.65;;
67995;SDS011;54772;53.544;49.324;2023-09-19T18:21:42;8.38;;;4.53;;
67995;SDS011;54772;53.544;49.324;2023-09-19T18:24:31;9.10;;;4.87;;
67995;SDS011;54772;53.544;49.324;2023-09-19T18:27:18;9.68;;;3.97;;
67995;SDS011;54772;53.544;49.324;2023-09-19T18:30:06;9.90;;;4.82;;
67995;SDS011;54772;53.544;49.324;2023-09-19T18:32:53;10.23;;;4.30;;
67995;SDS011;54772;53.544;49.324;2023-09-19T18:38:26;8.50;;;4.12;;
67995;SDS011;54772;53.544;49.324;2023-09-19T18:41:13;9.30;;;4.28;;
67995;SDS011;54772;53.544;49.324;2023-09-19T18:44:00;8.85;;;4.07;;
67995;SDS011;54772;53.544;49.324;2023-09-19T18:49:33;8.05;;;4.57;;
67995;SDS011;54772;53.544;49.324;2023-09-19T18:52:20;8.50;;;3.95;;
67995;SDS011;54772;53.544;49.324;2023-09-19T18:55:07;9.90;;;4.25;;
67995;SDS011;54772;53.544;49.324;2023-09-19T18:57:56;6.82;;;4.10;;
67995;SDS011;54772;53.544;49.324;2023-09-19T19:00:43;8.73;;;4.28;;
67995;SDS011;54772;53.544;49.324;2023-09-19T19:03:30;8.48;;;4.22;;
67995;SDS011;54772;53.544;49.324;2023-09-19T19:06:16;8.43;;;4.20;;
67995;SDS011;54772;53.544;49.324;2023-09-19T19:09:03;6.75;;;3.65;;